Time;durP1;ratioP1;P1;durP2;ratioP2;P2;SDS_P1;SDS_P2;PMS_P1;PMS_P2;Temp;Humidity;BMP_temperature;BMP_pressure;BME280_temperature;BME280_humidity;BME280_pressure;Samples;Min_cycle;Max_cycle;Signal;HPM_P1;HPM_P2
2022/06/06 00:01:20;;;;;;;7.30;5.50;;;;;;100784.34;;;;107660;1277;28783;-33
2022/06/06 00:03:48;;;;;;;6.60;5.10;;;;;;100781.57;;;;107660;1276;26476;-35
2022/06/06 00:06:19;;;;;;;6.60;5.30;;;;;;100780.51;;;;107698;1276;28346;-35
2022/06/06 00:08:48;;;;;;;5.90;5.30;;;;;;100780.49;;;;107672;1276;28915;-35
2022/06/06 00:11:15;;;;;;;5.80;5.10;;;;;;100778.72;;;;107653;1277;28821;-35
2022/06/06 00:13:45;;;;;;;6.30;5.30;;;;;;100778.86;;;;107662;1276;28909;-35
2022/06/06 00:16:12;;;;;;;6.40;5.50;;;;;;100777.13;;;;107689;1276;28912;-36
2022/06/06 00:18:39;;;;;;;7.00;5.40;;;;;;100774.42;;;;107658;1276;29173;-35
2022/06/06 00:21:09;;;;;;;7.50;5.40;;;;;;100770.83;;;;107658;1277;28119;-36
2022/06/06 00:23:38;;;;;;;6.20;5.10;;;;;;100768.56;;;;107574;1277;27799;-36
2022/06/06 00:26:10;;;;;;;8.90;5.40;;;;;;100762.33;;;;107662;1276;28969;-36
2022/06/06 00:28:39;;;;;;;7.20;5.60;;;;;;100757.11;;;;107664;1277;27771;-36
2022/06/06 00:36:38;;;;;;;6.60;5.30;;;;;;100742.02;;;;107652;1277;26366;-35
2022/06/06 00:39:09;;;;;;;6.00;5.20;;;;;;100739.32;;;;107636;1277;29678;-35
2022/06/06 00:41:50;;;;;;;6.70;5.50;;;;;;100737.73;;;;107674;1276;26414;-36
2022/06/06 00:44:30;;;;;;;7.50;5.70;;;;;;100740.35;;;;107666;1276;28799;-36
2022/06/06 00:47:21;;;;;;;7.00;5.20;;;;;;100741.81;;;;107631;1276;27677;-36
2022/06/06 00:49:56;;;;;;;7.00;5.40;;;;;;100741.27;;;;107643;1276;28900;-36
2022/06/06 00:52:32;;;;;;;5.60;5.00;;;;;;100737.79;;;;107644;1276;28902;-36
2022/06/06 00:55:13;;;;;;;6.90;5.50;;;;;;100733.26;;;;107674;1277;26548;-35
2022/06/06 00:57:45;;;;;;;6.20;5.10;;;;;;100733.06;;;;107695;1276;27776;-35
2022/06/06 01:00:16;;;;;;;6.20;5.40;;;;;;100730.23;;;;107668;1277;27859;-35
2022/06/06 01:02:48;;;;;;;7.60;5.60;;;;;;100726.04;;;;107643;1276;29965;-35
2022/06/06 01:05:16;;;;;;;6.10;5.40;;;;;;100725.64;;;;107660;1276;29483;-35
2022/06/06 01:07:43;;;;;;;6.00;5.30;;;;;;100724.50;;;;107680;1277;26456;-36
2022/06/06 01:10:10;;;;;;;6.00;5.30;;;;;;100721.66;;;;107679;1276;28154;-35
2022/06/06 01:12:38;;;;;;;6.50;5.40;;;;;;100719.77;;;;107676;1277;29053;-35
2022/06/06 01:15:09;;;;;;;5.90;5.30;;;;;;100716.30;;;;107640;1277;29887;-35
2022/06/06 01:18:30;;;;;;;6.40;5.40;;;;;;100715.41;;;;107652;1277;28780;-35
2022/06/06 01:21:28;;;;;;;6.70;5.40;;;;;;100712.74;;;;107416;1276;28927;-35
2022/06/06 01:24:40;;;;;;;7.60;5.20;;;;;;100708.79;;;;107669;1276;29761;-35
2022/06/06 01:27:34;;;;;;;7.90;5.50;;;;;;100708.58;;;;107669;1276;28334;-35
2022/06/06 01:30:10;;;;;;;7.10;5.80;;;;;;100707.75;;;;107641;1277;28317;-35
2022/06/06 01:32:51;;;;;;;7.40;5.50;;;;;;100705.85;;;;107561;1280;29555;-35
2022/06/06 01:35:32;;;;;;;6.10;5.40;;;;;;100707.79;;;;107669;1276;26924;-35
2022/06/06 01:37:59;;;;;;;6.70;5.50;;;;;;100708.44;;;;107649;1277;27819;-35
2022/06/06 01:40:40;;;;;;;6.50;5.70;;;;;;100706.41;;;;107669;1276;29001;-35
2022/06/06 01:43:16;;;;;;;6.60;5.40;;;;;;100703.42;;;;107492;1279;29023;-35
2022/06/06 01:45:55;;;;;;;6.40;5.60;;;;;;100702.95;;;;107655;1277;28990;-35
2022/06/06 01:48:29;;;;;;;6.40;5.30;;;;;;100704.88;;;;107658;1277;29757;-35
2022/06/06 01:50:56;;;;;;;6.40;5.40;;;;;;100706.77;;;;107668;1277;29901;-35
2022/06/06 01:53:25;;;;;;;6.90;5.30;;;;;;100705.66;;;;107652;1276;27886;-35
2022/06/06 01:55:53;;;;;;;7.90;5.50;;;;;;100704.80;;;;107667;1276;28986;-35
2022/06/06 01:58:28;;;;;;;6.10;5.30;;;;;;100699.49;;;;107692;1276;28991;-36
2022/06/06 02:00:54;;;;;;;6.40;5.20;;;;;;100698.73;;;;107603;1277;27916;-36
2022/06/06 02:03:21;;;;;;;6.90;5.70;;;;;;100694.25;;;;107649;1277;29653;-36
2022/06/06 02:05:48;;;;;;;6.50;5.50;;;;;;100687.38;;;;107654;1276;26489;-36
2022/06/06 02:08:15;;;;;;;6.70;5.60;;;;;;100678.77;;;;107566;1276;28951;-36
2022/06/06 02:10:43;;;;;;;7.20;6.00;;;;;;100678.46;;;;107669;1276;29002;-36
2022/06/06 02:13:10;;;;;;;6.30;5.50;;;;;;100677.87;;;;107698;1276;28935;-36
2022/06/06 02:15:37;;;;;;;6.20;5.60;;;;;;100679.66;;;;107659;1277;29012;-36
2022/06/06 02:18:04;;;;;;;7.60;5.70;;;;;;100678.58;;;;107651;1277;29926;-36
2022/06/06 02:20:32;;;;;;;6.40;5.40;;;;;;100674.23;;;;107636;1276;29891;-36
2022/06/06 02:23:00;;;;;;;7.00;6.00;;;;;;100670.17;;;;107673;1277;28961;-36
2022/06/06 02:25:29;;;;;;;6.50;5.60;;;;;;100667.49;;;;107675;1277;28950;-36
2022/06/06 02:27:56;;;;;;;6.70;5.50;;;;;;100664.31;;;;107691;1276;28608;-36
2022/06/06 02:30:30;;;;;;;7.80;5.70;;;;;;100667.35;;;;107662;1277;29002;-35
2022/06/06 02:32:57;;;;;;;6.30;5.60;;;;;;100669.19;;;;107657;1276;29014;-35
2022/06/06 02:35:29;;;;;;;8.20;5.70;;;;;;100667.86;;;;107640;1276;28892;-36
2022/06/06 02:37:56;;;;;;;6.20;5.60;;;;;;100666.30;;;;107675;1277;26810;-36
2022/06/06 02:40:25;;;;;;;6.60;5.90;;;;;;100666.92;;;;107677;1277;27794;-36
2022/06/06 02:42:52;;;;;;;6.80;6.10;;;;;;100669.96;;;;107662;1277;29065;-36
2022/06/06 02:45:19;;;;;;;7.40;6.30;;;;;;100670.00;;;;107654;1277;28926;-36
2022/06/06 02:47:50;;;;;;;6.90;6.20;;;;;;100665.90;;;;107642;1277;28986;-36
2022/06/06 02:50:20;;;;;;;6.70;6.00;;;;;;100667.00;;;;107659;1276;28244;-36
2022/06/06 02:52:47;;;;;;;6.90;6.20;;;;;;100664.11;;;;107662;1277;29024;-35
2022/06/06 02:55:15;;;;;;;6.50;5.80;;;;;;100666.89;;;;107647;1277;29768;-35
2022/06/06 02:57:49;;;;;;;6.60;5.80;;;;;;100670.42;;;;107675;1276;29657;-35
2022/06/06 03:00:24;;;;;;;6.40;5.60;;;;;;100674.34;;;;107649;1277;27639;-35
2022/06/06 03:02:51;;;;;;;6.60;5.90;;;;;;100677.81;;;;107686;1276;27798;-35
2022/06/06 03:05:18;;;;;;;6.60;5.80;;;;;;100680.45;;;;107653;1276;28026;-35
2022/06/06 03:08:36;;;;;;;6.60;5.80;;;;;;100689.29;;;;107556;1277;29086;-34
2022/06/06 03:11:48;;;;;;;9.20;6.40;;;;;;100691.25;;;;107255;1276;28306;-35
2022/06/06 03:14:46;;;;;;;7.00;5.50;;;;;;100691.70;;;;107637;1276;29020;-34
2022/06/06 03:21:03;;;;;;;8.10;5.90;;;;;;100701.62;;;;107651;1277;29135;-34
2022/06/06 03:24:06;;;;;;;6.90;6.20;;;;;;100706.56;;;;107626;1277;27934;-34
2022/06/06 03:26:54;;;;;;;6.90;6.20;;;;;;100709.54;;;;107627;1277;28815;-34
2022/06/06 03:30:19;;;;;;;6.80;6.10;;;;;;100711.05;;;;107660;1277;27778;-34
2022/06/06 03:33:06;;;;;;;6.30;5.70;;;;;;100711.69;;;;107663;1276;29673;-35
2022/06/06 03:36:11;;;;;;;7.00;6.10;;;;;;100706.30;;;;107643;1277;29856;-35
2022/06/06 03:39:03;;;;;;;6.80;6.10;;;;;;100715.40;;;;107445;1277;26935;-35
2022/06/06 03:41:46;;;;;;;7.40;6.40;;;;;;100716.88;;;;107569;1278;27796;-35
2022/06/06 03:44:37;;;;;;;6.70;6.00;;;;;;100715.06;;;;107624;1276;29017;-35
2022/06/06 03:47:55;;;;;;;6.90;6.20;;;;;;100718.17;;;;107661;1277;29168;-34
2022/06/06 03:50:50;;;;;;;6.80;6.00;;;;;;100716.48;;;;107659;1277;28099;-35
2022/06/06 03:53:37;;;;;;;6.90;6.00;;;;;;100718.66;;;;107649;1277;27753;-35
2022/06/06 03:56:58;;;;;;;7.60;6.30;;;;;;100724.02;;;;107662;1277;28907;-35
2022/06/06 03:59:27;;;;;;;7.50;6.70;;;;;;100726.36;;;;107645;1277;27949;-35
2022/06/06 04:01:55;;;;;;;7.10;6.40;;;;;;100724.73;;;;107585;1278;28976;-35
2022/06/06 04:04:23;;;;;;;7.30;6.40;;;;;;100728.59;;;;107669;1276;29028;-35
2022/06/06 04:06:52;;;;;;;8.30;6.20;;;;;;100730.25;;;;107644;1277;28887;-35
2022/06/06 04:09:19;;;;;;;7.10;6.30;;;;;;100728.55;;;;107678;1277;26377;-35
2022/06/06 04:12:34;;;;;;;7.00;6.30;;;;;;100731.98;;;;107644;1277;29795;-35
2022/06/06 04:15:27;;;;;;;7.20;6.50;;;;;;100735.54;;;;107649;1277;26964;-35
2022/06/06 04:18:26;;;;;;;7.70;6.90;;;;;;100737.41;;;;107657;1276;28538;-35
2022/06/06 04:21:19;;;;;;;6.90;6.10;;;;;;100737.07;;;;107656;1277;26541;-35
2022/06/06 04:24:43;;;;;;;7.70;6.30;;;;;;100736.98;;;;107651;1277;27924;-35
2022/06/06 04:27:26;;;;;;;7.20;6.30;;;;;;100731.19;;;;107205;1284;28994;-34
2022/06/06 04:30:06;;;;;;;6.60;5.80;;;;;;100725.10;;;;107647;1277;28937;-35
2022/06/06 04:32:53;;;;;;;7.00;6.20;;;;;;100724.42;;;;107549;1279;27778;-34
2022/06/06 04:35:55;;;;;;;7.10;6.40;;;;;;100725.92;;;;107645;1276;28922;-34
2022/06/06 04:38:44;;;;;;;7.70;6.10;;;;;;100727.38;;;;107593;1277;28979;-35
2022/06/06 04:41:31;;;;;;;7.40;6.70;;;;;;100727.29;;;;107653;1276;28930;-35
2022/06/06 04:44:19;;;;;;;7.70;6.90;;;;;;100725.82;;;;107655;1276;29057;-35
2022/06/06 04:47:00;;;;;;;7.70;6.70;;;;;;100725.54;;;;107668;1276;30457;-34
2022/06/06 04:49:29;;;;;;;7.80;6.70;;;;;;100726.94;;;;107640;1277;29805;-35
2022/06/06 04:51:58;;;;;;;7.50;6.60;;;;;;100727.77;;;;107665;1277;28589;-35
2022/06/06 04:54:26;;;;;;;7.40;6.70;;;;;;100727.57;;;;107537;1277;26732;-35
2022/06/06 04:56:53;;;;;;;8.00;6.60;;;;;;100729.27;;;;107551;1277;28986;-35
2022/06/06 04:59:23;;;;;;;7.60;6.90;;;;;;100728.74;;;;107588;1277;29991;-35
2022/06/06 05:01:49;;;;;;;8.30;7.00;;;;;;100729.41;;;;107641;1277;28912;-35
2022/06/06 05:04:16;;;;;;;8.30;6.70;;;;;;100729.15;;;;107640;1277;27502;-34
2022/06/06 05:07:34;;;;;;;7.60;6.70;;;;;;100729.27;;;;107652;1278;29010;-35
2022/06/06 05:10:56;;;;;;;7.30;6.60;;;;;;100730.09;;;;107274;1277;27851;-35
2022/06/06 05:13:59;;;;;;;8.00;6.30;;;;;;100727.81;;;;107505;1276;29014;-35
2022/06/06 05:16:50;;;;;;;6.90;6.00;;;;;;100727.88;;;;107643;1277;27709;-35
2022/06/06 05:19:40;;;;;;;7.00;6.30;;;;;;100732.92;;;;107656;1277;27673;-35
2022/06/06 05:22:41;;;;;;;7.00;6.30;;;;;;100733.00;;;;107647;1277;27827;-36
2022/06/06 05:25:39;;;;;;;8.40;6.40;;;;;;100742.05;;;;107660;1276;26420;-35
2022/06/06 05:28:24;;;;;;;9.10;6.60;;;;;;100743.52;;;;107494;1277;211804;-35
2022/06/06 05:31:12;;;;;;;10.30;7.50;;;;;;100742.27;;;;107666;1277;28780;-35
2022/06/06 05:34:06;;;;;;;7.80;7.00;;;;;;100749.88;;;;107651;1277;27681;-35
2022/06/06 05:37:14;;;;;;;7.90;6.90;;;;;;100756.83;;;;107638;1277;28850;-35
2022/06/06 05:40:07;;;;;;;8.90;7.50;;;;;;100753.88;;;;107564;1278;29937;-35
2022/06/06 05:43:17;;;;;;;7.60;6.70;;;;;;100752.89;;;;107647;1278;29220;-35
2022/06/06 05:46:23;;;;;;;8.50;6.80;;;;;;100753.57;;;;107467;1278;28938;-34
2022/06/06 05:49:15;;;;;;;8.50;6.80;;;;;;100758.73;;;;107619;1277;27714;-33
2022/06/06 05:52:13;;;;;;;9.20;7.00;;;;;;100747.78;;;;107563;1277;28979;-33
2022/06/06 05:54:57;;;;;;;8.80;7.00;;;;;;100744.04;;;;107616;1277;26543;-34
2022/06/06 05:58:07;;;;;;;7.30;6.50;;;;;;100744.91;;;;107469;1281;28851;-35
2022/06/06 06:01:05;;;;;;;8.50;6.50;;;;;;100742.29;;;;107623;1277;27775;-34
2022/06/06 06:04:23;;;;;;;7.80;6.40;;;;;;100738.31;;;;107573;1277;28906;-34
2022/06/06 06:07:32;;;;;;;8.80;7.10;;;;;;100737.40;;;;107598;1278;28905;-35
2022/06/06 06:10:45;;;;;;;7.50;6.40;;;;;;100732.75;;;;107582;1278;27717;-36
2022/06/06 06:13:22;;;;;;;7.20;6.00;;;;;;100730.21;;;;107507;1278;30114;-35
2022/06/06 06:15:52;;;;;;;8.40;6.80;;;;;;100722.77;;;;107630;1278;27539;-36
2022/06/06 06:18:43;;;;;;;7.60;6.80;;;;;;100717.48;;;;107654;1278;27859;-33
2022/06/06 06:21:18;;;;;;;8.90;6.10;;;;;;100717.99;;;;107621;1278;28947;-36
2022/06/06 06:24:04;;;;;;;8.20;6.20;;;;;;100712.67;;;;107640;1278;26381;-35
2022/06/06 06:26:31;;;;;;;7.70;5.90;;;;;;100709.83;;;;107556;1277;29101;-35
2022/06/06 06:29:05;;;;;;;6.80;5.80;;;;;;100717.13;;;;107648;1277;27791;-35
2022/06/06 06:31:38;;;;;;;7.10;5.60;;;;;;100724.24;;;;107561;1278;27636;-35
2022/06/06 06:34:22;;;;;;;7.70;5.70;;;;;;100724.52;;;;107616;1278;29871;-35
2022/06/06 06:36:58;;;;;;;7.30;5.80;;;;;;100723.25;;;;107636;1277;28974;-36
2022/06/06 06:39:48;;;;;;;7.30;5.60;;;;;;100718.27;;;;107630;1277;30002;-35
2022/06/06 06:42:48;;;;;;;5.60;5.00;;;;;;100715.93;;;;107607;1277;29090;-35
2022/06/06 06:45:22;;;;;;;6.30;5.50;;;;;;100716.77;;;;107616;1278;28994;-35
2022/06/06 06:48:03;;;;;;;6.50;5.50;;;;;;100716.60;;;;107630;1278;28480;-37
2022/06/06 06:51:10;;;;;;;6.60;5.90;;;;;;100712.23;;;;107617;1277;27591;-36
2022/06/06 06:54:02;;;;;;;7.00;5.10;;;;;;100718.09;;;;107629;1278;28843;-35
2022/06/06 06:56:46;;;;;;;6.00;5.30;;;;;;100723.23;;;;107581;1277;27748;-35
2022/06/06 06:59:37;;;;;;;6.20;5.50;;;;;;100724.09;;;;107624;1277;27543;-35
2022/06/06 07:09:22;;;;;;;6.40;4.90;;;;;;100717.59;;;;107610;1278;29944;-40
2022/06/06 07:12:16;;;;;;;8.10;5.20;;;;;;100716.48;;;;107623;1278;28962;-34
2022/06/06 07:15:20;;;;;;;5.80;5.10;;;;;;100714.31;;;;107629;1277;27937;-36
2022/06/06 07:17:54;;;;;;;5.40;4.90;;;;;;100713.35;;;;107639;1277;28916;-35
2022/06/06 07:20:21;;;;;;;5.70;4.70;;;;;;100708.10;;;;107632;1278;29931;-35
2022/06/06 07:23:04;;;;;;;6.50;5.00;;;;;;100711.21;;;;107636;1277;29103;-37
2022/06/06 07:25:41;;;;;;;6.30;5.10;;;;;;100711.68;;;;107616;1278;28854;-37
2022/06/06 07:28:18;;;;;;;5.80;4.60;;;;;;100711.71;;;;107610;1278;29468;-35
2022/06/06 07:31:22;;;;;;;5.70;5.20;;;;;;100708.70;;;;107622;1277;29894;-34
2022/06/06 07:34:01;;;;;;;;;;;;;;100711.88;;;;107653;1277;28907;-37
2022/06/06 07:36:54;;;;;;;6.50;5.10;;;;;;100709.81;;;;107635;1277;29036;-37
2022/06/06 07:40:07;;;;;;;6.00;5.00;;;;;;100707.77;;;;107618;1278;29020;-36
2022/06/06 07:43:01;;;;;;;5.80;5.00;;;;;;100710.24;;;;107617;1277;28902;-35
2022/06/06 07:45:48;;;;;;;5.60;4.90;;;;;;100703.63;;;;107620;1277;29052;-35
2022/06/06 07:48:40;;;;;;;6.80;4.80;;;;;;100699.80;;;;107638;1277;27757;-35
2022/06/06 07:51:43;;;;;;;5.60;4.80;;;;;;100696.17;;;;107633;1278;29146;-35
2022/06/06 07:54:25;;;;;;;7.60;4.60;;;;;;100693.48;;;;107642;1277;27666;-35
2022/06/06 07:57:34;;;;;;;5.90;4.90;;;;;;100691.25;;;;107633;1278;28826;-35
2022/06/06 08:00:13;;;;;;;5.50;4.70;;;;;;100686.35;;;;107638;1277;27715;-35
2022/06/06 08:02:59;;;;;;;5.00;4.50;;;;;;100683.27;;;;107620;1277;26585;-35
2022/06/06 08:05:58;;;;;;;5.10;4.50;;;;;;100685.25;;;;107602;1278;29446;-35
2022/06/06 08:08:55;;;;;;;5.80;4.80;;;;;;100686.48;;;;107597;1277;28800;-36
2022/06/06 08:11:49;;;;;;;5.20;4.60;;;;;;100680.75;;;;107597;1277;26383;-35
2022/06/06 08:14:51;;;;;;;5.30;4.80;;;;;;100688.19;;;;107634;1277;29720;-35
2022/06/06 08:17:17;;;;;;;6.90;4.10;;;;;;100682.71;;;;107635;1278;27534;-34
2022/06/06 08:20:01;;;;;;;5.20;4.20;;;;;;100681.67;;;;107638;1277;28961;-36
2022/06/06 08:22:29;;;;;;;6.00;4.50;;;;;;100679.50;;;;107619;1277;26790;-34
2022/06/06 08:24:58;;;;;;;6.50;4.60;;;;;;100676.44;;;;107617;1277;29753;-33
2022/06/06 08:27:28;;;;;;;6.10;4.80;;;;;;100675.96;;;;107624;1277;29744;-35
2022/06/06 08:29:54;;;;;;;5.60;5.00;;;;;;100681.38;;;;107645;1277;29163;-35
2022/06/06 08:32:21;;;;;;;6.60;5.30;;;;;;100680.29;;;;107602;1277;28722;-35
2022/06/06 08:34:48;;;;;;;4.50;3.90;;;;;;100671.59;;;;107630;1277;28076;-34
2022/06/06 08:37:58;;;;;;;5.30;4.40;;;;;;100675.70;;;;107622;1277;28970;-35
2022/06/06 08:41:13;;;;;;;4.90;4.00;;;;;;100675.72;;;;107466;1277;42595;-34
2022/06/06 08:43:59;;;;;;;4.50;3.60;;;;;;100677.33;;;;107627;1277;28860;-35
2022/06/06 08:47:08;;;;;;;4.60;4.00;;;;;;100673.81;;;;107632;1277;28950;-36
2022/06/06 08:52:56;;;;;;;4.50;3.90;;;;;;100676.24;;;;107615;1278;27541;-37
2022/06/06 08:56:11;;;;;;;5.10;3.90;;;;;;100674.63;;;;107623;1277;28899;-35
2022/06/06 08:59:00;;;;;;;4.90;3.80;;;;;;100667.61;;;;107621;1277;28460;-35
2022/06/06 09:02:01;;;;;;;5.10;3.90;;;;;;100672.59;;;;107615;1277;27833;-34
2022/06/06 09:05:08;;;;;;;5.60;4.40;;;;;;100676.11;;;;107399;1278;27949;-34
2022/06/06 09:07:43;;;;;;;6.00;4.10;;;;;;100675.61;;;;107638;1277;28925;-34
2022/06/06 09:10:51;;;;;;;5.60;3.90;;;;;;100674.01;;;;107334;1277;43306;-36
2022/06/06 09:13:58;;;;;;;4.50;3.50;;;;;;100671.73;;;;107481;1277;40021;-35
2022/06/06 09:17:04;;;;;;;5.20;3.90;;;;;;100670.30;;;;107560;1277;29971;-34
2022/06/06 09:19:59;;;;;;;5.10;3.60;;;;;;100669.08;;;;107586;1277;27956;-35
2022/06/06 09:22:40;;;;;;;5.40;3.90;;;;;;100664.46;;;;107616;1277;29017;-35
2022/06/06 09:25:18;;;;;;;4.40;3.40;;;;;;100661.34;;;;107580;1277;27675;-35
2022/06/06 09:28:11;;;;;;;5.10;3.70;;;;;;100664.27;;;;107608;1277;28130;-35
2022/06/06 09:31:08;;;;;;;4.70;3.70;;;;;;100660.39;;;;107635;1277;28471;-35
2022/06/06 09:34:17;;;;;;;4.90;3.70;;;;;;100655.67;;;;107622;1277;26427;-37
2022/06/06 09:36:46;;;;;;;4.70;3.70;;;;;;100644.95;;;;107502;1277;28899;-33
2022/06/06 09:39:35;;;;;;;4.50;3.60;;;;;;100643.92;;;;107588;1277;29851;-36
2022/06/06 09:42:37;;;;;;;4.20;3.40;;;;;;100647.55;;;;107569;1277;27648;-37
2022/06/06 09:45:27;;;;;;;5.40;3.60;;;;;;100640.81;;;;107612;1276;29050;-35
2022/06/06 09:48:54;;;;;;;4.50;3.60;;;;;;100632.89;;;;107610;1276;27921;-35
2022/06/06 09:52:03;;;;;;;4.50;3.60;;;;;;100632.79;;;;107606;1277;28838;-37
2022/06/06 09:59:13;;;;;;;4.40;3.40;;;;;;100633.77;;;;107164;1282;27765;-35
2022/06/06 10:02:11;;;;;;;4.30;3.50;;;;;;100637.39;;;;107588;1276;28925;-35
2022/06/06 10:05:13;;;;;;;5.70;4.00;;;;;;100634.60;;;;107607;1276;28947;-34
2022/06/06 10:08:43;;;;;;;4.80;3.80;;;;;;100626.44;;;;107603;1277;29491;-35
2022/06/06 10:11:44;;;;;;;4.50;3.90;;;;;;100621.58;;;;107552;1277;26706;-35
2022/06/06 10:14:44;;;;;;;4.80;3.90;;;;;;100617.59;;;;107449;1277;27531;-34
2022/06/06 10:18:02;;;;;;;4.50;3.60;;;;;;100607.06;;;;107567;1276;29126;-34
2022/06/06 10:20:46;;;;;;;4.70;3.70;;;;;;100611.11;;;;107251;1277;29855;-33
2022/06/06 10:23:49;;;;;;;4.40;3.70;;;;;;100606.27;;;;107587;1277;28939;-35
2022/06/06 10:26:32;;;;;;;4.80;3.70;;;;;;100601.05;;;;107601;1276;28940;-37
2022/06/06 10:29:18;;;;;;;7.80;3.80;;;;;;100602.20;;;;107622;1276;27804;-36
2022/06/06 10:32:23;;;;;;;4.10;3.40;;;;;;100599.02;;;;107480;1278;27901;-36
2022/06/06 10:35:18;;;;;;;4.50;3.70;;;;;;100594.72;;;;107602;1276;29029;-36
2022/06/06 10:38:10;;;;;;;4.10;3.20;;;;;;100583.43;;;;107587;1276;28928;-37
2022/06/06 10:41:01;;;;;;;5.40;3.80;;;;;;100582.02;;;;107395;1278;29870;-35
2022/06/06 10:43:42;;;;;;;4.70;3.50;;;;;;100574.92;;;;107550;1277;27674;-37
2022/06/06 10:46:25;;;;;;;5.20;3.70;;;;;;100571.92;;;;107608;1276;29175;-37
2022/06/06 10:48:57;;;;;;;;;;;;;;100569.47;;;;107616;1276;27962;-38
2022/06/06 10:52:12;;;;;;;4.90;3.40;;;;;;100575.14;;;;107580;1277;27695;-39
2022/06/06 10:55:09;;;;;;;4.50;3.50;;;;;;100571.85;;;;107574;1277;28790;-36
2022/06/06 10:58:08;;;;;;;5.70;3.40;;;;;;100569.39;;;;107530;1278;28845;-37
2022/06/06 11:01:06;;;;;;;4.90;3.60;;;;;;100560.82;;;;107507;1277;30110;-37
2022/06/06 11:03:56;;;;;;;4.70;3.90;;;;;;100555.22;;;;107546;1276;27682;-35
2022/06/06 11:06:52;;;;;;;4.00;3.40;;;;;;100560.00;;;;107526;1277;28960;-36
2022/06/06 11:09:56;;;;;;;4.40;3.50;;;;;;100554.02;;;;107541;1277;29053;-36
2022/06/06 11:12:49;;;;;;;4.30;3.20;;;;;;100548.83;;;;107583;1277;27946;-37
2022/06/06 11:15:16;;;;;;;4.10;3.40;;;;;;100546.22;;;;107429;1276;29121;-39
2022/06/06 11:18:16;;;;;;;4.40;3.50;;;;;;100548.07;;;;107415;1279;26486;-37
2022/06/06 11:21:09;;;;;;;4.10;3.30;;;;;;100537.89;;;;107571;1276;28922;-38
2022/06/06 11:24:12;;;;;;;4.80;3.30;;;;;;100532.54;;;;107536;1276;26493;-37
2022/06/06 11:27:22;;;;;;;4.20;3.50;;;;;;100539.63;;;;107404;1277;27838;-37
2022/06/06 11:30:32;;;;;;;4.30;3.50;;;;;;100540.39;;;;107602;1277;30118;-35
2022/06/06 11:33:48;;;;;;;4.00;3.20;;;;;;100532.73;;;;107581;1277;28855;-34
2022/06/06 11:37:09;;;;;;;4.10;3.50;;;;;;100534.83;;;;107552;1277;26345;-35
2022/06/06 11:40:21;;;;;;;4.10;3.50;;;;;;100533.70;;;;107552;1276;29581;-35
2022/06/06 11:43:42;;;;;;;5.10;3.20;;;;;;100532.24;;;;107605;1277;26630;-34
2022/06/06 11:47:09;;;;;;;3.90;3.20;;;;;;100533.90;;;;107422;1277;29127;-34
2022/06/06 11:50:24;;;;;;;4.20;3.40;;;;;;100526.83;;;;107085;1282;29871;-34
2022/06/06 11:53:02;;;;;;;;;;;;;;100527.92;;;;107455;1279;29514;-41
2022/06/06 11:56:06;;;;;;;4.10;3.30;;;;;;100517.17;;;;107424;1281;28938;-40
2022/06/06 11:59:05;;;;;;;4.80;3.60;;;;;;100529.77;;;;107460;1281;28948;-40
2022/06/06 12:01:54;;;;;;;4.10;3.50;;;;;;100524.09;;;;107471;1281;29138;-40
2022/06/06 12:04:47;;;;;;;4.40;3.60;;;;;;100518.83;;;;107461;1279;29439;-40
2022/06/06 12:07:44;;;;;;;4.50;3.70;;;;;;100520.02;;;;107456;1281;29015;-40
2022/06/06 12:10:24;;;;;;;5.00;3.90;;;;;;100515.92;;;;107476;1279;28975;-40
2022/06/06 12:13:23;;;;;;;4.80;4.00;;;;;;100514.63;;;;107493;1281;29687;-40
2022/06/06 12:15:58;;;;;;;5.00;4.10;;;;;;100509.98;;;;107513;1279;28994;-40
2022/06/06 12:18:47;;;;;;;4.40;3.70;;;;;;100505.23;;;;107502;1281;28898;-40
2022/06/06 12:21:36;;;;;;;4.30;3.90;;;;;;100510.14;;;;107467;1281;27821;-40
2022/06/06 12:24:34;;;;;;;5.30;4.00;;;;;;100509.08;;;;107457;1281;28950;-40
2022/06/06 12:27:20;;;;;;;4.30;3.70;;;;;;100509.04;;;;107470;1281;28942;-40
2022/06/06 12:30:09;;;;;;;4.50;3.80;;;;;;100505.14;;;;107476;1281;29200;-40
2022/06/06 12:33:03;;;;;;;4.40;3.40;;;;;;100505.64;;;;107435;1280;28925;-40
2022/06/06 12:36:14;;;;;;;4.10;3.40;;;;;;100491.24;;;;107494;1281;27756;-42
2022/06/06 12:39:14;;;;;;;4.10;3.50;;;;;;100486.04;;;;107482;1279;28859;-40
2022/06/06 12:42:04;;;;;;;4.30;3.80;;;;;;100498.09;;;;107429;1281;29030;-39
2022/06/06 12:44:52;;;;;;;5.50;3.50;;;;;;100487.26;;;;107426;1279;30175;-37
2022/06/06 12:47:54;;;;;;;4.30;3.40;;;;;;100488.98;;;;107480;1277;29956;-38
2022/06/06 12:53:41;;;;;;;4.10;3.40;;;;;;100485.09;;;;103840;1311;569716;-39
2022/06/06 12:56:52;;;;;;;5.10;3.40;;;;;;100484.73;;;;106553;1287;33263;-38
2022/06/06 12:59:24;;;;;;;4.30;3.40;;;;;;100476.55;;;;106806;1283;33725;-38
2022/06/06 13:02:03;;;;;;;4.10;3.10;;;;;;100476.92;;;;107291;1278;33124;-38
2022/06/06 13:04:58;;;;;;;4.10;3.50;;;;;;100476.61;;;;107317;1279;34297;-39
2022/06/06 13:07:56;;;;;;;4.00;3.10;;;;;;100469.95;;;;107186;1276;282178;-37
2022/06/06 13:10:56;;;;;;;4.10;3.20;;;;;;100467.27;;;;107459;1276;34434;-36
2022/06/06 13:14:05;;;;;;;4.20;3.30;;;;;;100460.60;;;;107435;1276;34453;-37
2022/06/06 13:16:58;;;;;;;4.00;3.00;;;;;;100461.73;;;;107433;1277;33660;-39
2022/06/06 13:20:16;;;;;;;6.20;4.00;;;;;;100467.15;;;;107391;1276;33718;-40
2022/06/06 13:23:04;;;;;;;5.60;4.20;;;;;;100456.33;;;;107419;1274;33648;-38
2022/06/06 13:25:58;;;;;;;4.50;3.80;;;;;;100453.52;;;;107439;1274;33428;-38
2022/06/06 13:28:31;;;;;;;4.40;3.80;;;;;;100450.84;;;;107470;1274;33445;-44
2022/06/06 13:31:09;;;;;;;4.20;3.80;;;;;;100447.77;;;;107467;1276;33624;-43
2022/06/06 13:34:19;;;;;;;4.90;4.30;;;;;;100456.40;;;;107391;1276;33553;-41
2022/06/06 13:37:06;;;;;;;4.70;4.00;;;;;;100454.21;;;;107431;1276;33053;-40
2022/06/06 13:40:05;;;;;;;4.60;4.10;;;;;;100449.38;;;;107397;1276;33201;-42
2022/06/06 13:43:19;;;;;;;4.40;3.80;;;;;;100451.88;;;;107426;1274;33076;-49
2022/06/06 13:46:02;;;;;;;4.60;4.10;;;;;;100445.90;;;;107504;1274;33437;-40
2022/06/06 13:48:45;;;;;;;4.60;3.80;;;;;;100441.28;;;;107476;1274;33386;-41
2022/06/06 13:51:54;;;;;;;5.00;4.10;;;;;;100439.79;;;;107443;1274;33619;-43
2022/06/06 13:54:32;;;;;;;5.10;4.10;;;;;;100439.89;;;;107469;1274;33447;-44
2022/06/06 13:57:27;;;;;;;4.40;4.00;;;;;;100440.95;;;;107511;1274;33539;-42
2022/06/06 14:00:10;;;;;;;5.00;4.30;;;;;;100445.29;;;;107512;1274;34693;-45
2022/06/06 14:03:19;;;;;;;5.20;4.10;;;;;;100437.58;;;;107487;1274;33398;-44
2022/06/06 14:06:13;;;;;;;5.40;4.40;;;;;;100431.09;;;;107513;1275;33938;-45
2022/06/06 14:08:54;;;;;;;5.60;4.00;;;;;;100437.73;;;;107455;1275;33851;-45
2022/06/06 14:11:31;;;;;;;5.20;4.20;;;;;;100436.92;;;;107450;1274;33470;-44
2022/06/06 14:14:01;;;;;;;6.40;4.30;;;;;;100436.85;;;;107356;1274;33454;-46
2022/06/06 14:16:45;;;;;;;5.20;4.00;;;;;;100431.98;;;;109403;1274;32782;-46
2022/06/06 14:19:20;;;;;;;5.30;4.10;;;;;;100431.03;;;;107308;1277;33546;-43
2022/06/06 14:22:03;;;;;;;5.50;4.10;;;;;;100429.99;;;;109371;1274;30727;-44
2022/06/06 14:24:38;;;;;;;4.90;3.80;;;;;;100432.06;;;;108817;1274;32868;-44
2022/06/06 14:27:09;;;;;;;6.70;3.80;;;;;;100430.51;;;;107990;1274;33866;-43
2022/06/06 14:29:39;;;;;;;4.40;3.80;;;;;;100427.93;;;;107524;1277;34381;-45
2022/06/06 14:32:31;;;;;;;5.70;4.40;;;;;;100423.18;;;;107510;1274;34093;-42
2022/06/06 14:35:20;;;;;;;5.10;4.10;;;;;;100420.57;;;;107541;1274;33449;-44
2022/06/06 14:37:49;;;;;;;5.60;3.80;;;;;;100421.11;;;;107544;1274;33924;-46
2022/06/06 14:40:37;;;;;;;4.60;4.10;;;;;;100418.65;;;;107575;1274;33500;-44
2022/06/06 14:43:06;;;;;;;5.00;3.90;;;;;;100418.16;;;;107532;1274;33888;-45
2022/06/06 14:45:37;;;;;;;4.80;4.20;;;;;;100415.71;;;;107536;1274;33633;-44
2022/06/06 14:48:17;;;;;;;4.90;4.00;;;;;;100413.06;;;;107532;1274;33311;-45
2022/06/06 14:50:59;;;;;;;5.10;4.30;;;;;;100412.23;;;;107518;1274;33516;-44
2022/06/06 14:53:30;;;;;;;5.40;4.30;;;;;;100404.89;;;;107492;1274;33792;-45
2022/06/06 14:56:10;;;;;;;5.30;3.90;;;;;;100401.92;;;;107535;1274;33271;-44
2022/06/06 14:58:38;;;;;;;4.60;4.00;;;;;;100395.83;;;;107533;1275;33996;-44